sensor_id;sensor_type;location;lat;lon;timestamp;P1;durP1;ratioP1;P2;durP2;ratioP2
5742;SDS011;2896;53.500;10.020;2023-08-30T00:00:25;3.37;;;3.20;;
5742;SDS011;2896;53.500;10.020;2023-08-30T00:02:51;3.20;;;3.10;;
5742;SDS011;2896;53.500;10.020;2023-08-30T00:05:18;4.43;;;4.10;;
5742;SDS011;2896;53.500;10.020;2023-08-30T00:07:45;4.37;;;3.97;;
5742;SDS011;2896;53.500;10.020;2023-08-30T00:10:11;4.03;;;3.73;;
5742;SDS011;2896;53.500;10.020;2023-08-30T00:12:38;4.50;;;3.80;;
5742;SDS011;2896;53.500;10.020;2023-08-30T00:15:07;4.37;;;4.07;;
5742;SDS011;2896;53.500;10.020;2023-08-30T00:17:34;3.47;;;3.27;;
5742;SDS011;2896;53.500;10.020;2023-08-30T00:20:00;4.23;;;3.90;;
5742;SDS011;2896;53.500;10.020;2023-08-30T00:22:27;4.60;;;4.30;;
5742;SDS011;2896;53.500;10.020;2023-08-30T00:24:54;5.17;;;4.77;;
5742;SDS011;2896;53.500;10.020;2023-08-30T00:27:21;4.50;;;4.10;;
5742;SDS011;2896;53.500;10.020;2023-08-30T00:29:48;6.27;;;4.00;;
5742;SDS011;2896;53.500;10.020;2023-08-30T00:32:16;4.47;;;4.07;;
5742;SDS011;2896;53.500;10.020;2023-08-30T00:34:42;4.80;;;4.40;;
5742;SDS011;2896;53.500;10.020;2023-08-30T00:37:09;4.27;;;3.87;;
5742;SDS011;2896;53.500;10.020;2023-08-30T00:39:37;3.63;;;3.43;;
5742;SDS011;2896;53.500;10.020;2023-08-30T00:42:04;3.57;;;3.37;;
5742;SDS011;2896;53.500;10.020;2023-08-30T00:44:32;3.60;;;3.40;;
5742;SDS011;2896;53.500;10.020;2023-08-30T00:46:59;4.20;;;3.90;;
5742;SDS011;2896;53.500;10.020;2023-08-30T00:49:27;3.80;;;3.67;;
5742;SDS011;2896;53.500;10.020;2023-08-30T00:51:55;4.20;;;3.80;;
5742;SDS011;2896;53.500;10.020;2023-08-30T00:54:22;3.67;;;3.37;;
5742;SDS011;2896;53.500;10.020;2023-08-30T00:56:49;10.10;;;3.70;;
5742;SDS011;2896;53.500;10.020;2023-08-30T00:59:16;3.63;;;3.40;;
5742;SDS011;2896;53.500;10.020;2023-08-30T01:01:43;3.63;;;3.53;;
5742;SDS011;2896;53.500;10.020;2023-08-30T01:04:11;3.80;;;3.60;;
5742;SDS011;2896;53.500;10.020;2023-08-30T01:06:39;3.67;;;3.40;;
5742;SDS011;2896;53.500;10.020;2023-08-30T01:09:06;3.73;;;3.50;;
5742;SDS011;2896;53.500;10.020;2023-08-30T01:11:36;3.87;;;3.60;;
5742;SDS011;2896;53.500;10.020;2023-08-30T01:14:07;4.40;;;3.90;;
5742;SDS011;2896;53.500;10.020;2023-08-30T01:16:38;3.67;;;3.40;;
5742;SDS011;2896;53.500;10.020;2023-08-30T01:19:13;3.80;;;3.50;;
5742;SDS011;2896;53.500;10.020;2023-08-30T01:22:01;3.63;;;3.43;;
5742;SDS011;2896;53.500;10.020;2023-08-30T01:24:37;3.60;;;3.40;;
5742;SDS011;2896;53.500;10.020;2023-08-30T01:27:21;5.47;;;4.03;;
5742;SDS011;2896;53.500;10.020;2023-08-30T01:29:49;3.70;;;3.50;;
5742;SDS011;2896;53.500;10.020;2023-08-30T01:32:19;5.00;;;3.63;;
5742;SDS011;2896;53.500;10.020;2023-08-30T01:34:50;3.57;;;3.37;;
5742;SDS011;2896;53.500;10.020;2023-08-30T01:37:17;3.70;;;3.50;;
5742;SDS011;2896;53.500;10.020;2023-08-30T01:39:46;3.60;;;3.30;;
5742;SDS011;2896;53.500;10.020;2023-08-30T01:42:12;4.10;;;3.80;;
5742;SDS011;2896;53.500;10.020;2023-08-30T01:44:48;4.00;;;3.80;;
5742;SDS011;2896;53.500;10.020;2023-08-30T01:47:15;4.00;;;3.70;;
5742;SDS011;2896;53.500;10.020;2023-08-30T01:49:43;5.17;;;4.60;;
5742;SDS011;2896;53.500;10.020;2023-08-30T01:52:10;4.10;;;3.70;;
5742;SDS011;2896;53.500;10.020;2023-08-30T01:54:38;3.30;;;3.20;;
5742;SDS011;2896;53.500;10.020;2023-08-30T01:57:06;4.20;;;3.90;;
5742;SDS011;2896;53.500;10.020;2023-08-30T01:59:33;3.60;;;3.40;;
5742;SDS011;2896;53.500;10.020;2023-08-30T02:02:01;4.87;;;4.47;;
5742;SDS011;2896;53.500;10.020;2023-08-30T02:04:29;3.93;;;3.63;;
5742;SDS011;2896;53.500;10.020;2023-08-30T02:06:58;4.07;;;3.87;;
5742;SDS011;2896;53.500;10.020;2023-08-30T02:09:28;4.87;;;4.57;;
5742;SDS011;2896;53.500;10.020;2023-08-30T02:12:04;3.67;;;3.47;;
5742;SDS011;2896;53.500;10.020;2023-08-30T02:14:36;4.73;;;4.33;;
5742;SDS011;2896;53.500;10.020;2023-08-30T02:17:05;4.27;;;4.00;;
5742;SDS011;2896;53.500;10.020;2023-08-30T02:19:33;4.30;;;3.90;;
5742;SDS011;2896;53.500;10.020;2023-08-30T02:22:00;4.47;;;4.17;;
5742;SDS011;2896;53.500;10.020;2023-08-30T02:24:28;8.17;;;4.43;;
5742;SDS011;2896;53.500;10.020;2023-08-30T02:26:55;6.50;;;4.00;;
5742;SDS011;2896;53.500;10.020;2023-08-30T02:29:21;4.30;;;3.90;;
5742;SDS011;2896;53.500;10.020;2023-08-30T02:31:48;4.90;;;4.60;;
5742;SDS011;2896;53.500;10.020;2023-08-30T02:34:17;4.60;;;4.30;;
5742;SDS011;2896;53.500;10.020;2023-08-30T02:36:48;3.97;;;3.70;;
5742;SDS011;2896;53.500;10.020;2023-08-30T02:39:15;3.70;;;3.60;;
5742;SDS011;2896;53.500;10.020;2023-08-30T02:41:41;3.90;;;3.70;;
5742;SDS011;2896;53.500;10.020;2023-08-30T02:44:07;3.57;;;3.40;;
5742;SDS011;2896;53.500;10.020;2023-08-30T02:46:36;4.37;;;4.07;;
5742;SDS011;2896;53.500;10.020;2023-08-30T02:49:03;5.23;;;4.83;;
5742;SDS011;2896;53.500;10.020;2023-08-30T02:51:31;4.50;;;4.20;;
5742;SDS011;2896;53.500;10.020;2023-08-30T02:53:58;4.70;;;4.40;;
5742;SDS011;2896;53.500;10.020;2023-08-30T02:56:25;5.50;;;4.67;;
5742;SDS011;2896;53.500;10.020;2023-08-30T02:58:51;4.70;;;4.40;;
5742;SDS011;2896;53.500;10.020;2023-08-30T03:01:18;4.60;;;4.20;;
5742;SDS011;2896;53.500;10.020;2023-08-30T03:03:45;3.60;;;3.30;;
5742;SDS011;2896;53.500;10.020;2023-08-30T03:06:12;4.13;;;3.83;;
5742;SDS011;2896;53.500;10.020;2023-08-30T03:08:40;3.97;;;3.77;;
5742;SDS011;2896;53.500;10.020;2023-08-30T03:11:07;3.67;;;3.47;;
5742;SDS011;2896;53.500;10.020;2023-08-30T03:13:34;5.43;;;5.03;;
5742;SDS011;2896;53.500;10.020;2023-08-30T03:16:02;5.10;;;4.70;;
5742;SDS011;2896;53.500;10.020;2023-08-30T03:18:35;6.40;;;5.90;;
5742;SDS011;2896;53.500;10.020;2023-08-30T03:21:02;6.57;;;6.03;;
5742;SDS011;2896;53.500;10.020;2023-08-30T03:23:29;6.00;;;5.40;;
5742;SDS011;2896;53.500;10.020;2023-08-30T03:25:58;5.73;;;5.10;;
5742;SDS011;2896;53.500;10.020;2023-08-30T03:28:24;4.80;;;4.50;;
5742;SDS011;2896;53.500;10.020;2023-08-30T03:30:52;4.60;;;4.40;;
5742;SDS011;2896;53.500;10.020;2023-08-30T03:33:19;5.90;;;4.30;;
5742;SDS011;2896;53.500;10.020;2023-08-30T03:35:45;4.63;;;4.33;;
5742;SDS011;2896;53.500;10.020;2023-08-30T03:38:12;4.13;;;3.93;;
5742;SDS011;2896;53.500;10.020;2023-08-30T03:40:38;4.77;;;4.50;;
5742;SDS011;2896;53.500;10.020;2023-08-30T03:43:06;5.97;;;5.57;;
5742;SDS011;2896;53.500;10.020;2023-08-30T03:45:34;6.20;;;5.70;;
5742;SDS011;2896;53.500;10.020;2023-08-30T03:48:01;5.50;;;5.10;;
5742;SDS011;2896;53.500;10.020;2023-08-30T03:50:28;6.90;;;6.30;;
5742;SDS011;2896;53.500;10.020;2023-08-30T03:52:55;16.33;;;8.10;;
5742;SDS011;2896;53.500;10.020;2023-08-30T03:55:21;8.10;;;7.43;;
5742;SDS011;2896;53.500;10.020;2023-08-30T03:57:48;7.30;;;6.70;;
5742;SDS011;2896;53.500;10.020;2023-08-30T04:00:16;7.50;;;6.77;;
5742;SDS011;2896;53.500;10.020;2023-08-30T04:02:43;6.50;;;5.90;;
5742;SDS011;2896;53.500;10.020;2023-08-30T04:05:10;6.67;;;6.20;;
5742;SDS011;2896;53.500;10.020;2023-08-30T04:07:36;6.20;;;5.80;;
5742;SDS011;2896;53.500;10.020;2023-08-30T04:10:03;6.30;;;5.80;;
5742;SDS011;2896;53.500;10.020;2023-08-30T04:12:32;6.50;;;6.00;;
5742;SDS011;2896;53.500;10.020;2023-08-30T04:14:59;8.07;;;7.37;;
5742;SDS011;2896;53.500;10.020;2023-08-30T04:17:27;6.97;;;6.33;;
5742;SDS011;2896;53.500;10.020;2023-08-30T04:19:54;7.63;;;6.93;;
5742;SDS011;2896;53.500;10.020;2023-08-30T04:22:21;5.60;;;5.20;;
5742;SDS011;2896;53.500;10.020;2023-08-30T04:24:48;6.83;;;6.40;;
5742;SDS011;2896;53.500;10.020;2023-08-30T04:27:15;6.10;;;5.70;;
5742;SDS011;2896;53.500;10.020;2023-08-30T04:29:41;10.30;;;9.30;;
5742;SDS011;2896;53.500;10.020;2023-08-30T04:32:10;10.70;;;9.57;;
5742;SDS011;2896;53.500;10.020;2023-08-30T04:34:38;8.60;;;7.60;;
5742;SDS011;2896;53.500;10.020;2023-08-30T04:37:04;6.53;;;6.03;;
5742;SDS011;2896;53.500;10.020;2023-08-30T04:39:31;9.10;;;8.20;;
5742;SDS011;2896;53.500;10.020;2023-08-30T04:41:58;9.93;;;8.00;;
5742;SDS011;2896;53.500;10.020;2023-08-30T04:44:24;17.63;;;11.60;;
5742;SDS011;2896;53.500;10.020;2023-08-30T04:46:52;13.47;;;9.13;;
5742;SDS011;2896;53.500;10.020;2023-08-30T04:49:19;10.60;;;9.27;;
5742;SDS011;2896;53.500;10.020;2023-08-30T04:51:48;8.97;;;8.17;;
5742;SDS011;2896;53.500;10.020;2023-08-30T04:54:14;7.73;;;7.13;;
5742;SDS011;2896;53.500;10.020;2023-08-30T04:56:41;10.40;;;9.40;;
5742;SDS011;2896;53.500;10.020;2023-08-30T04:59:08;7.73;;;7.13;;
5742;SDS011;2896;53.500;10.020;2023-08-30T05:01:35;9.97;;;8.90;;
5742;SDS011;2896;53.500;10.020;2023-08-30T05:04:02;10.10;;;9.20;;
5742;SDS011;2896;53.500;10.020;2023-08-30T05:06:30;12.50;;;11.20;;
5742;SDS011;2896;53.500;10.020;2023-08-30T05:08:58;14.40;;;11.90;;
5742;SDS011;2896;53.500;10.020;2023-08-30T05:11:25;13.13;;;11.83;;
5742;SDS011;2896;53.500;10.020;2023-08-30T05:13:51;13.00;;;10.50;;
5742;SDS011;2896;53.500;10.020;2023-08-30T05:16:18;12.17;;;11.03;;
5742;SDS011;2896;53.500;10.020;2023-08-30T05:18:45;10.33;;;9.43;;
5742;SDS011;2896;53.500;10.020;2023-08-30T05:21:12;13.70;;;10.97;;
5742;SDS011;2896;53.500;10.020;2023-08-30T05:23:39;12.00;;;10.03;;
5742;SDS011;2896;53.500;10.020;2023-08-30T05:26:08;8.43;;;7.67;;
5742;SDS011;2896;53.500;10.020;2023-08-30T05:28:37;10.93;;;9.83;;
5742;SDS011;2896;53.500;10.020;2023-08-30T05:31:04;7.93;;;7.33;;
5742;SDS011;2896;53.500;10.020;2023-08-30T05:33:31;12.40;;;8.03;;
5742;SDS011;2896;53.500;10.020;2023-08-30T05:35:57;8.20;;;7.40;;
5742;SDS011;2896;53.500;10.020;2023-08-30T05:38:24;10.27;;;9.30;;
5742;SDS011;2896;53.500;10.020;2023-08-30T05:40:51;10.77;;;9.67;;
5742;SDS011;2896;53.500;10.020;2023-08-30T05:43:19;10.43;;;8.20;;
5742;SDS011;2896;53.500;10.020;2023-08-30T05:45:45;9.60;;;8.67;;
5742;SDS011;2896;53.500;10.020;2023-08-30T05:48:12;9.33;;;8.60;;
5742;SDS011;2896;53.500;10.020;2023-08-30T05:50:38;8.97;;;8.00;;
5742;SDS011;2896;53.500;10.020;2023-08-30T05:53:05;9.30;;;8.30;;
5742;SDS011;2896;53.500;10.020;2023-08-30T05:55:32;8.60;;;7.90;;
5742;SDS011;2896;53.500;10.020;2023-08-30T05:57:59;11.53;;;9.33;;
5742;SDS011;2896;53.500;10.020;2023-08-30T06:00:27;9.40;;;8.70;;
5742;SDS011;2896;53.500;10.020;2023-08-30T06:02:53;13.00;;;9.43;;
5742;SDS011;2896;53.500;10.020;2023-08-30T06:05:20;8.50;;;7.80;;
5742;SDS011;2896;53.500;10.020;2023-08-30T06:07:47;8.13;;;7.50;;
5742;SDS011;2896;53.500;10.020;2023-08-30T06:10:13;10.43;;;8.43;;
5742;SDS011;2896;53.500;10.020;2023-08-30T06:12:40;7.90;;;7.30;;
5742;SDS011;2896;53.500;10.020;2023-08-30T06:15:07;9.77;;;8.87;;
5742;SDS011;2896;53.500;10.020;2023-08-30T06:17:35;9.13;;;8.30;;
5742;SDS011;2896;53.500;10.020;2023-08-30T06:20:02;8.13;;;7.20;;
5742;SDS011;2896;53.500;10.020;2023-08-30T06:22:29;6.90;;;6.40;;
5742;SDS011;2896;53.500;10.020;2023-08-30T06:24:56;12.70;;;8.13;;
5742;SDS011;2896;53.500;10.020;2023-08-30T06:27:23;8.40;;;7.70;;
5742;SDS011;2896;53.500;10.020;2023-08-30T06:29:50;9.30;;;8.50;;
5742;SDS011;2896;53.500;10.020;2023-08-30T06:32:16;7.07;;;6.50;;
5742;SDS011;2896;53.500;10.020;2023-08-30T06:34:44;9.43;;;8.60;;
5742;SDS011;2896;53.500;10.020;2023-08-30T06:37:11;8.40;;;7.20;;
5742;SDS011;2896;53.500;10.020;2023-08-30T06:39:37;14.63;;;7.90;;
5742;SDS011;2896;53.500;10.020;2023-08-30T06:42:04;10.37;;;8.00;;
5742;SDS011;2896;53.500;10.020;2023-08-30T06:44:31;10.07;;;9.07;;
5742;SDS011;2896;53.500;10.020;2023-08-30T06:46:58;9.70;;;8.80;;
5742;SDS011;2896;53.500;10.020;2023-08-30T06:49:24;12.93;;;9.47;;
5742;SDS011;2896;53.500;10.020;2023-08-30T06:51:52;10.37;;;8.77;;
5742;SDS011;2896;53.500;10.020;2023-08-30T06:54:19;10.33;;;9.23;;
5742;SDS011;2896;53.500;10.020;2023-08-30T06:56:56;19.67;;;9.33;;
5742;SDS011;2896;53.500;10.020;2023-08-30T06:59:23;10.30;;;9.00;;
5742;SDS011;2896;53.500;10.020;2023-08-30T07:01:50;8.73;;;7.93;;
5742;SDS011;2896;53.500;10.020;2023-08-30T07:04:16;9.33;;;8.53;;
5742;SDS011;2896;53.500;10.020;2023-08-30T07:06:43;7.73;;;7.13;;
5742;SDS011;2896;53.500;10.020;2023-08-30T07:09:11;8.20;;;6.63;;
5742;SDS011;2896;53.500;10.020;2023-08-30T07:11:39;10.00;;;9.00;;
5742;SDS011;2896;53.500;10.020;2023-08-30T07:14:09;9.53;;;8.13;;
5742;SDS011;2896;53.500;10.020;2023-08-30T07:16:35;8.33;;;7.37;;
5742;SDS011;2896;53.500;10.020;2023-08-30T07:19:02;7.47;;;6.87;;
5742;SDS011;2896;53.500;10.020;2023-08-30T07:21:29;10.07;;;8.77;;
5742;SDS011;2896;53.500;10.020;2023-08-30T07:23:55;10.07;;;9.17;;
5742;SDS011;2896;53.500;10.020;2023-08-30T07:26:24;12.30;;;8.93;;
5742;SDS011;2896;53.500;10.020;2023-08-30T07:28:51;8.73;;;7.90;;
5742;SDS011;2896;53.500;10.020;2023-08-30T07:31:17;9.13;;;8.33;;
5742;SDS011;2896;53.500;10.020;2023-08-30T07:33:44;9.33;;;8.23;;
5742;SDS011;2896;53.500;10.020;2023-08-30T07:36:11;12.47;;;8.43;;
5742;SDS011;2896;53.500;10.020;2023-08-30T07:38:38;8.70;;;7.37;;
5742;SDS011;2896;53.500;10.020;2023-08-30T07:41:04;9.00;;;8.13;;
5742;SDS011;2896;53.500;10.020;2023-08-30T07:43:32;10.60;;;8.50;;
5742;SDS011;2896;53.500;10.020;2023-08-30T07:45:59;8.43;;;7.63;;
5742;SDS011;2896;53.500;10.020;2023-08-30T07:48:26;10.00;;;8.83;;
5742;SDS011;2896;53.500;10.020;2023-08-30T07:50:52;9.80;;;7.77;;
5742;SDS011;2896;53.500;10.020;2023-08-30T07:53:19;9.20;;;8.40;;
5742;SDS011;2896;53.500;10.020;2023-08-30T07:55:47;8.77;;;7.70;;
5742;SDS011;2896;53.500;10.020;2023-08-30T07:58:15;7.20;;;6.47;;
5742;SDS011;2896;53.500;10.020;2023-08-30T08:00:43;9.20;;;8.30;;
5742;SDS011;2896;53.500;10.020;2023-08-30T08:03:09;12.07;;;9.97;;
5742;SDS011;2896;53.500;10.020;2023-08-30T08:05:36;12.73;;;10.80;;
5742;SDS011;2896;53.500;10.020;2023-08-30T08:08:03;13.00;;;10.63;;
5742;SDS011;2896;53.500;10.020;2023-08-30T08:10:31;13.83;;;10.43;;
5742;SDS011;2896;53.500;10.020;2023-08-30T08:12:58;11.67;;;10.00;;
5742;SDS011;2896;53.500;10.020;2023-08-30T08:15:24;12.33;;;9.23;;
5742;SDS011;2896;53.500;10.020;2023-08-30T08:17:52;14.13;;;9.00;;
5742;SDS011;2896;53.500;10.020;2023-08-30T08:20:19;16.00;;;9.70;;
5742;SDS011;2896;53.500;10.020;2023-08-30T08:22:46;12.00;;;9.47;;
5742;SDS011;2896;53.500;10.020;2023-08-30T08:25:13;10.53;;;8.50;;
5742;SDS011;2896;53.500;10.020;2023-08-30T08:27:40;16.87;;;7.37;;
5742;SDS011;2896;53.500;10.020;2023-08-30T08:30:07;9.17;;;7.97;;
5742;SDS011;2896;53.500;10.020;2023-08-30T08:32:35;7.77;;;7.00;;
5742;SDS011;2896;53.500;10.020;2023-08-30T08:35:04;9.23;;;6.70;;
5742;SDS011;2896;53.500;10.020;2023-08-30T08:37:31;7.33;;;6.63;;
5742;SDS011;2896;53.500;10.020;2023-08-30T08:39:58;8.80;;;7.10;;
5742;SDS011;2896;53.500;10.020;2023-08-30T08:42:25;8.13;;;6.73;;
5742;SDS011;2896;53.500;10.020;2023-08-30T08:44:53;7.60;;;5.20;;
5742;SDS011;2896;53.500;10.020;2023-08-30T08:47:22;21.53;;;7.17;;
5742;SDS011;2896;53.500;10.020;2023-08-30T08:49:49;6.90;;;6.23;;
5742;SDS011;2896;53.500;10.020;2023-08-30T08:52:18;9.00;;;6.60;;
5742;SDS011;2896;53.500;10.020;2023-08-30T08:54:45;6.40;;;5.53;;
5742;SDS011;2896;53.500;10.020;2023-08-30T08:57:11;5.90;;;5.40;;
5742;SDS011;2896;53.500;10.020;2023-08-30T08:59:39;6.80;;;5.27;;
5742;SDS011;2896;53.500;10.020;2023-08-30T09:02:06;9.70;;;6.30;;
5742;SDS011;2896;53.500;10.020;2023-08-30T09:04:34;6.27;;;5.70;;
5742;SDS011;2896;53.500;10.020;2023-08-30T09:07:01;6.60;;;5.27;;
5742;SDS011;2896;53.500;10.020;2023-08-30T09:09:29;12.40;;;6.17;;
5742;SDS011;2896;53.500;10.020;2023-08-30T09:11:56;21.40;;;6.77;;
5742;SDS011;2896;53.500;10.020;2023-08-30T09:14:23;7.70;;;6.30;;
5742;SDS011;2896;53.500;10.020;2023-08-30T09:16:56;6.27;;;5.73;;
5742;SDS011;2896;53.500;10.020;2023-08-30T09:19:23;9.80;;;7.10;;
5742;SDS011;2896;53.500;10.020;2023-08-30T09:21:50;6.43;;;5.83;;
5742;SDS011;2896;53.500;10.020;2023-08-30T09:24:18;9.00;;;6.27;;
5742;SDS011;2896;53.500;10.020;2023-08-30T09:26:48;7.70;;;6.80;;
5742;SDS011;2896;53.500;10.020;2023-08-30T09:29:16;10.90;;;6.43;;
5742;SDS011;2896;53.500;10.020;2023-08-30T09:31:44;7.50;;;5.63;;
5742;SDS011;2896;53.500;10.020;2023-08-30T09:34:11;10.80;;;7.50;;
5742;SDS011;2896;53.500;10.020;2023-08-30T09:36:38;8.53;;;7.73;;
5742;SDS011;2896;53.500;10.020;2023-08-30T09:39:06;7.27;;;6.07;;
5742;SDS011;2896;53.500;10.020;2023-08-30T09:41:34;14.07;;;6.43;;
5742;SDS011;2896;53.500;10.020;2023-08-30T09:44:07;8.37;;;7.10;;
5742;SDS011;2896;53.500;10.020;2023-08-30T09:46:42;14.37;;;6.80;;
5742;SDS011;2896;53.500;10.020;2023-08-30T09:49:09;11.40;;;7.27;;
5742;SDS011;2896;53.500;10.020;2023-08-30T09:51:38;9.20;;;6.87;;
5742;SDS011;2896;53.500;10.020;2023-08-30T09:54:09;6.07;;;5.27;;
5742;SDS011;2896;53.500;10.020;2023-08-30T09:56:39;8.17;;;5.60;;
5742;SDS011;2896;53.500;10.020;2023-08-30T09:59:09;11.33;;;6.43;;
5742;SDS011;2896;53.500;10.020;2023-08-30T10:01:37;7.73;;;5.70;;
5742;SDS011;2896;53.500;10.020;2023-08-30T10:04:04;5.57;;;4.33;;
5742;SDS011;2896;53.500;10.020;2023-08-30T10:06:31;5.00;;;4.00;;
5742;SDS011;2896;53.500;10.020;2023-08-30T10:08:59;5.40;;;4.87;;
5742;SDS011;2896;53.500;10.020;2023-08-30T10:11:28;5.00;;;4.43;;
5742;SDS011;2896;53.500;10.020;2023-08-30T10:13:56;4.40;;;4.20;;
5742;SDS011;2896;53.500;10.020;2023-08-30T10:16:26;5.63;;;3.97;;
5742;SDS011;2896;53.500;10.020;2023-08-30T10:18:59;7.07;;;4.47;;
5742;SDS011;2896;53.500;10.020;2023-08-30T10:21:29;8.93;;;5.43;;
5742;SDS011;2896;53.500;10.020;2023-08-30T10:23:56;5.73;;;4.90;;
5742;SDS011;2896;53.500;10.020;2023-08-30T10:26:24;9.47;;;4.30;;
5742;SDS011;2896;53.500;10.020;2023-08-30T10:28:53;14.20;;;5.07;;
5742;SDS011;2896;53.500;10.020;2023-08-30T10:31:21;5.10;;;4.60;;
5742;SDS011;2896;53.500;10.020;2023-08-30T10:33:49;5.07;;;4.10;;
5742;SDS011;2896;53.500;10.020;2023-08-30T10:36:21;4.93;;;4.47;;
5742;SDS011;2896;53.500;10.020;2023-08-30T10:38:48;5.20;;;4.63;;
5742;SDS011;2896;53.500;10.020;2023-08-30T10:41:19;5.40;;;4.80;;
5742;SDS011;2896;53.500;10.020;2023-08-30T10:43:49;5.23;;;4.73;;
5742;SDS011;2896;53.500;10.020;2023-08-30T10:46:17;3.93;;;3.67;;
5742;SDS011;2896;53.500;10.020;2023-08-30T10:48:56;5.13;;;4.70;;
5742;SDS011;2896;53.500;10.020;2023-08-30T10:51:34;3.90;;;3.20;;
5742;SDS011;2896;53.500;10.020;2023-08-30T10:54:09;6.80;;;3.67;;
5742;SDS011;2896;53.500;10.020;2023-08-30T10:56:45;6.80;;;4.00;;
5742;SDS011;2896;53.500;10.020;2023-08-30T10:59:15;5.93;;;4.10;;
5742;SDS011;2896;53.500;10.020;2023-08-30T11:01:42;4.33;;;4.03;;
5742;SDS011;2896;53.500;10.020;2023-08-30T11:04:11;6.57;;;4.10;;
5742;SDS011;2896;53.500;10.020;2023-08-30T11:06:40;4.10;;;3.80;;
5742;SDS011;2896;53.500;10.020;2023-08-30T11:09:08;4.13;;;3.73;;
5742;SDS011;2896;53.500;10.020;2023-08-30T11:11:36;6.83;;;3.53;;
5742;SDS011;2896;53.500;10.020;2023-08-30T11:14:04;4.33;;;3.80;;
5742;SDS011;2896;53.500;10.020;2023-08-30T11:16:31;4.03;;;3.23;;
5742;SDS011;2896;53.500;10.020;2023-08-30T11:18:59;6.00;;;3.87;;
5742;SDS011;2896;53.500;10.020;2023-08-30T11:21:28;8.10;;;4.80;;
5742;SDS011;2896;53.500;10.020;2023-08-30T11:23:56;3.97;;;3.77;;
5742;SDS011;2896;53.500;10.020;2023-08-30T11:26:22;5.10;;;3.93;;
5742;SDS011;2896;53.500;10.020;2023-08-30T11:28:49;4.60;;;4.13;;
5742;SDS011;2896;53.500;10.020;2023-08-30T11:31:18;3.70;;;3.40;;
5742;SDS011;2896;53.500;10.020;2023-08-30T11:33:50;8.17;;;3.70;;
5742;SDS011;2896;53.500;10.020;2023-08-30T11:36:18;4.20;;;3.90;;
5742;SDS011;2896;53.500;10.020;2023-08-30T11:38:47;7.57;;;4.30;;
5742;SDS011;2896;53.500;10.020;2023-08-30T11:41:15;5.50;;;4.30;;
5742;SDS011;2896;53.500;10.020;2023-08-30T11:43:42;4.93;;;4.50;;
5742;SDS011;2896;53.500;10.020;2023-08-30T11:46:10;3.67;;;3.57;;
5742;SDS011;2896;53.500;10.020;2023-08-30T11:48:37;4.60;;;4.30;;
5742;SDS011;2896;53.500;10.020;2023-08-30T11:51:04;4.37;;;3.97;;
5742;SDS011;2896;53.500;10.020;2023-08-30T11:53:31;5.37;;;4.30;;
5742;SDS011;2896;53.500;10.020;2023-08-30T11:56:00;6.10;;;4.37;;
5742;SDS011;2896;53.500;10.020;2023-08-30T11:58:27;5.60;;;4.43;;
5742;SDS011;2896;53.500;10.020;2023-08-30T12:00:53;8.80;;;4.20;;
5742;SDS011;2896;53.500;10.020;2023-08-30T12:03:21;5.90;;;4.30;;
5742;SDS011;2896;53.500;10.020;2023-08-30T12:05:48;5.13;;;4.60;;
5742;SDS011;2896;53.500;10.020;2023-08-30T12:08:19;9.63;;;4.70;;
5742;SDS011;2896;53.500;10.020;2023-08-30T12:10:46;20.57;;;4.07;;
5742;SDS011;2896;53.500;10.020;2023-08-30T12:13:21;5.00;;;4.57;;
5742;SDS011;2896;53.500;10.020;2023-08-30T12:15:48;4.33;;;3.90;;
5742;SDS011;2896;53.500;10.020;2023-08-30T12:18:15;5.17;;;3.93;;
5742;SDS011;2896;53.500;10.020;2023-08-30T12:20:51;10.90;;;3.30;;
5742;SDS011;2896;53.500;10.020;2023-08-30T12:23:21;4.87;;;4.43;;
5742;SDS011;2896;53.500;10.020;2023-08-30T12:26:01;5.47;;;3.27;;
5742;SDS011;2896;53.500;10.020;2023-08-30T12:28:31;4.53;;;3.30;;
5742;SDS011;2896;53.500;10.020;2023-08-30T12:30:59;4.57;;;3.47;;
5742;SDS011;2896;53.500;10.020;2023-08-30T12:33:27;6.37;;;3.20;;
5742;SDS011;2896;53.500;10.020;2023-08-30T12:35:54;6.77;;;5.50;;
5742;SDS011;2896;53.500;10.020;2023-08-30T12:38:21;5.40;;;4.37;;
5742;SDS011;2896;53.500;10.020;2023-08-30T12:40:48;5.80;;;5.20;;
5742;SDS011;2896;53.500;10.020;2023-08-30T12:43:16;4.40;;;4.10;;
5742;SDS011;2896;53.500;10.020;2023-08-30T12:45:46;6.70;;;5.23;;
5742;SDS011;2896;53.500;10.020;2023-08-30T12:48:14;5.23;;;4.83;;
5742;SDS011;2896;53.500;10.020;2023-08-30T12:50:41;6.30;;;4.17;;
5742;SDS011;2896;53.500;10.020;2023-08-30T12:53:10;3.90;;;3.63;;
5742;SDS011;2896;53.500;10.020;2023-08-30T12:55:37;4.00;;;3.70;;
5742;SDS011;2896;53.500;10.020;2023-08-30T12:58:05;4.60;;;3.93;;
5742;SDS011;2896;53.500;10.020;2023-08-30T13:00:33;5.17;;;4.20;;
5742;SDS011;2896;53.500;10.020;2023-08-30T13:03:02;4.40;;;4.00;;
5742;SDS011;2896;53.500;10.020;2023-08-30T13:05:29;4.17;;;3.87;;
5742;SDS011;2896;53.500;10.020;2023-08-30T13:07:57;4.63;;;4.20;;
5742;SDS011;2896;53.500;10.020;2023-08-30T13:10:23;6.40;;;3.50;;
5742;SDS011;2896;53.500;10.020;2023-08-30T13:12:50;3.80;;;3.30;;
5742;SDS011;2896;53.500;10.020;2023-08-30T13:15:17;5.20;;;3.83;;
5742;SDS011;2896;53.500;10.020;2023-08-30T13:17:43;4.63;;;4.33;;
5742;SDS011;2896;53.500;10.020;2023-08-30T13:20:11;8.23;;;4.07;;
5742;SDS011;2896;53.500;10.020;2023-08-30T13:22:38;5.00;;;4.20;;
5742;SDS011;2896;53.500;10.020;2023-08-30T13:25:05;4.43;;;3.77;;
5742;SDS011;2896;53.500;10.020;2023-08-30T13:27:33;11.00;;;3.73;;
5742;SDS011;2896;53.500;10.020;2023-08-30T13:30:00;3.83;;;3.53;;
5742;SDS011;2896;53.500;10.020;2023-08-30T13:32:27;8.90;;;4.60;;
5742;SDS011;2896;53.500;10.020;2023-08-30T13:34:53;3.63;;;3.43;;
5742;SDS011;2896;53.500;10.020;2023-08-30T13:37:21;5.13;;;3.83;;
5742;SDS011;2896;53.500;10.020;2023-08-30T13:39:48;4.93;;;3.47;;
5742;SDS011;2896;53.500;10.020;2023-08-30T13:42:15;4.87;;;3.80;;
5742;SDS011;2896;53.500;10.020;2023-08-30T13:44:42;6.53;;;3.90;;
5742;SDS011;2896;53.500;10.020;2023-08-30T13:47:09;4.07;;;3.77;;
5742;SDS011;2896;53.500;10.020;2023-08-30T13:49:35;4.13;;;3.90;;
5742;SDS011;2896;53.500;10.020;2023-08-30T13:52:02;6.97;;;3.87;;
5742;SDS011;2896;53.500;10.020;2023-08-30T13:54:32;4.83;;;3.53;;
5742;SDS011;2896;53.500;10.020;2023-08-30T13:56:59;6.10;;;3.43;;
5742;SDS011;2896;53.500;10.020;2023-08-30T13:59:25;4.00;;;3.70;;
5742;SDS011;2896;53.500;10.020;2023-08-30T14:01:53;3.53;;;3.33;;
5742;SDS011;2896;53.500;10.020;2023-08-30T14:04:22;4.90;;;3.90;;
5742;SDS011;2896;53.500;10.020;2023-08-30T14:06:49;3.67;;;3.40;;
5742;SDS011;2896;53.500;10.020;2023-08-30T14:09:16;3.73;;;3.50;;
5742;SDS011;2896;53.500;10.020;2023-08-30T14:11:44;5.43;;;3.90;;
5742;SDS011;2896;53.500;10.020;2023-08-30T14:14:10;3.10;;;2.90;;
5742;SDS011;2896;53.500;10.020;2023-08-30T14:16:37;3.53;;;3.17;;
5742;SDS011;2896;53.500;10.020;2023-08-30T14:19:04;4.00;;;3.60;;
5742;SDS011;2896;53.500;10.020;2023-08-30T14:21:31;3.40;;;3.10;;
5742;SDS011;2896;53.500;10.020;2023-08-30T14:23:58;4.60;;;3.37;;
5742;SDS011;2896;53.500;10.020;2023-08-30T14:26:25;5.87;;;3.57;;
5742;SDS011;2896;53.500;10.020;2023-08-30T14:28:53;3.90;;;3.60;;
5742;SDS011;2896;53.500;10.020;2023-08-30T14:31:20;7.60;;;4.13;;
5742;SDS011;2896;53.500;10.020;2023-08-30T14:33:47;3.73;;;3.33;;
5742;SDS011;2896;53.500;10.020;2023-08-30T14:36:13;4.03;;;3.77;;
5742;SDS011;2896;53.500;10.020;2023-08-30T14:38:41;3.97;;;3.77;;
5742;SDS011;2896;53.500;10.020;2023-08-30T14:41:08;4.77;;;4.00;;
5742;SDS011;2896;53.500;10.020;2023-08-30T14:43:37;3.80;;;3.33;;
5742;SDS011;2896;53.500;10.020;2023-08-30T14:46:05;4.70;;;3.57;;
5742;SDS011;2896;53.500;10.020;2023-08-30T14:48:32;10.10;;;3.30;;
5742;SDS011;2896;53.500;10.020;2023-08-30T14:51:00;3.43;;;3.23;;
5742;SDS011;2896;53.500;10.020;2023-08-30T14:53:27;5.97;;;2.83;;
5742;SDS011;2896;53.500;10.020;2023-08-30T14:55:54;3.67;;;3.37;;
5742;SDS011;2896;53.500;10.020;2023-08-30T14:58:22;3.70;;;3.50;;
5742;SDS011;2896;53.500;10.020;2023-08-30T15:00:49;4.00;;;3.70;;